Time;durP1;ratioP1;P1;durP2;ratioP2;P2;SDS_P1;SDS_P2;PMS_P1;PMS_P2;Temp;Humidity;BMP_temperature;BMP_pressure;BME280_temperature;BME280_humidity;BME280_pressure;Samples;Min_cycle;Max_cycle;Signal;HPM_P1;HPM_P2
2022/04/10 00:00:06;;;;;;;;;;;3.70;99.90;;;;;;5038013;28;20000;-66
2022/04/10 00:02:31;;;;;;;;;;;3.70;99.90;;;;;;5038283;28;20068;-66
2022/04/10 00:04:57;;;;;;;;;;;3.70;99.90;;;;;;5038219;28;20346;-65
2022/04/10 00:07:22;;;;;;;;;;;3.70;99.90;;;;;;5039305;28;19916;-66
2022/04/10 00:09:47;;;;;;;;;;;3.70;99.90;;;;;;5039640;28;19924;-66
2022/04/10 00:12:13;;;;;;;;;;;3.70;99.90;;;;;;5038132;28;20312;-66
2022/04/10 00:14:38;;;;;;;;;;;3.80;99.90;;;;;;5039292;28;19913;-66
2022/04/10 00:17:04;;;;;;;;;;;3.70;99.90;;;;;;5038900;28;19913;-66
2022/04/10 00:19:29;;;;;;;;;;;3.80;99.90;;;;;;5039271;28;19909;-66
2022/04/10 00:21:55;;;;;;;;;;;3.80;99.90;;;;;;5039054;28;19919;-66
2022/04/10 00:24:20;;;;;;;;;;;3.80;99.90;;;;;;5039057;28;19909;-66
2022/04/10 00:26:45;;;;;;;;;;;3.80;99.90;;;;;;5038558;28;20011;-66
2022/04/10 00:29:11;;;;;;;;;;;3.80;99.90;;;;;;5037376;28;19916;-66
2022/04/10 00:31:36;;;;;;;;;;;3.80;99.90;;;;;;5038686;28;19913;-66
2022/04/10 00:34:02;;;;;;;;;;;3.80;99.90;;;;;;5038681;28;19912;-66
2022/04/10 00:36:27;;;;;;;;;;;3.90;99.90;;;;;;5038844;28;19912;-66
2022/04/10 00:38:53;;;;;;;;;;;3.90;99.90;;;;;;5038727;28;19913;-66
2022/04/10 00:41:18;;;;;;;;;;;3.90;99.90;;;;;;5038535;28;19924;-66
2022/04/10 00:44:03;;;;;;;;;;;3.90;99.90;;;;;;5038786;28;19920;-64
2022/04/10 00:46:28;;;;;;;;;;;3.90;99.90;;;;;;5037009;28;19928;-64
2022/04/10 00:48:54;;;;;;;;;;;3.90;99.90;;;;;;5037856;28;20412;-64
2022/04/10 00:54:05;;;;;;;;;;;3.90;99.90;;;;;;5038063;28;19920;-66
2022/04/10 00:56:30;;;;;;;;;;;4.00;99.90;;;;;;5038047;28;20044;-66
2022/04/10 00:58:56;;;;;;;;;;;4.00;99.90;;;;;;5038281;28;20016;-66
2022/04/10 01:01:21;;;;;;;;;;;4.00;99.90;;;;;;5037943;28;20378;-66
2022/04/10 01:03:47;;;;;;;;;;;4.00;99.90;;;;;;5036484;28;19913;-66
2022/04/10 01:06:13;;;;;;;;;;;3.90;99.90;;;;;;5038228;28;19921;-66
2022/04/10 01:08:38;;;;;;;;;;;3.90;99.90;;;;;;5039039;28;19924;-66
2022/04/10 01:11:04;;;;;;;;;;;3.90;99.90;;;;;;5038443;28;20024;-66
2022/04/10 01:13:29;;;;;;;;;;;3.90;99.90;;;;;;5038624;28;19948;-64
2022/04/10 01:15:55;;;;;;;;;;;3.90;99.90;;;;;;5042569;28;19913;-64
2022/04/10 01:18:20;;;;;;;;;;;3.90;99.90;;;;;;5042508;28;19921;-64
2022/04/10 01:20:46;;;;;;;;;;;3.90;99.90;;;;;;5041329;28;19916;-64
2022/04/10 01:23:12;;;;;;;;;;;3.90;99.90;;;;;;5041363;28;19909;-64
2022/04/10 01:25:37;;;;;;;;;;;3.90;99.90;;;;;;5042149;28;20449;-64
2022/04/10 01:28:10;;;;;;;;;;;3.90;99.90;;;;;;5042145;28;20347;-64
2022/04/10 01:30:35;;;;;;;;;;;3.90;99.90;;;;;;5042390;28;20203;-66
2022/04/10 01:33:00;;;;;;;;;;;3.80;99.90;;;;;;5042239;28;20314;-66
2022/04/10 01:35:27;;;;;;;;;;;3.80;99.90;;;;;;5041800;28;19912;-66
2022/04/10 01:37:54;;;;;;;;;;;3.70;99.90;;;;;;5040061;28;19948;-66
2022/04/10 01:40:19;;;;;;;;;;;3.80;99.90;;;;;;5040303;28;19940;-66
2022/04/10 01:42:44;;;;;;;;;;;3.80;99.90;;;;;;5041884;28;19912;-66
2022/04/10 01:45:10;;;;;;;;;;;3.80;99.90;;;;;;5041405;28;19916;-66
2022/04/10 01:47:35;;;;;;;;;;;3.80;99.90;;;;;;5041736;28;19975;-66
2022/04/10 01:50:01;;;;;;;;;;;3.80;99.90;;;;;;5041420;28;19913;-66
2022/04/10 01:52:26;;;;;;;;;;;3.80;99.90;;;;;;5041194;28;19964;-66
2022/04/10 01:54:52;;;;;;;;;;;3.80;99.90;;;;;;5039701;28;20281;-66
2022/04/10 01:57:17;;;;;;;;;;;3.80;99.90;;;;;;5040051;28;19909;-66
2022/04/10 01:59:43;;;;;;;;;;;3.80;99.90;;;;;;5041514;28;19992;-66
2022/04/10 02:02:08;;;;;;;;;;;3.80;99.90;;;;;;5041515;28;20288;-66
2022/04/10 02:04:34;;;;;;;;;;;3.80;99.90;;;;;;5041631;28;20381;-66
2022/04/10 02:06:59;;;;;;;;;;;3.80;99.90;;;;;;5041779;28;19912;-66
2022/04/10 02:09:25;;;;;;;;;;;3.80;99.90;;;;;;5041806;28;19913;-66
2022/04/10 02:11:50;;;;;;;;;;;3.80;99.90;;;;;;5040609;28;19913;-66
2022/04/10 02:14:16;;;;;;;;;;;3.80;99.90;;;;;;5041224;28;19913;-66
2022/04/10 02:16:41;;;;;;;;;;;3.80;99.90;;;;;;5041693;28;19970;-66
2022/04/10 02:19:07;;;;;;;;;;;3.70;99.90;;;;;;5041169;28;19996;-66
2022/04/10 02:21:32;;;;;;;;;;;3.70;99.90;;;;;;5041431;28;19912;-66
2022/04/10 02:23:58;;;;;;;;;;;3.60;99.90;;;;;;5040726;28;20100;-66
2022/04/10 02:26:23;;;;;;;;;;;3.60;99.90;;;;;;5040189;28;20417;-66
2022/04/10 02:28:48;;;;;;;;;;;3.50;99.90;;;;;;5039734;28;20035;-66
2022/04/10 02:31:14;;;;;;;;;;;3.50;99.90;;;;;;5040416;28;20031;-66
2022/04/10 02:33:39;;;;;;;;;;;3.50;99.90;;;;;;5040970;28;20388;-66
2022/04/10 02:36:05;;;;;;;;;;;3.40;99.90;;;;;;5040259;28;20008;-66
2022/04/10 02:38:31;;;;;;;;;;;3.30;99.90;;;;;;5040749;28;19955;-66
2022/04/10 02:40:56;;;;;;;;;;;3.30;99.90;;;;;;5040686;28;19913;-66
2022/04/10 02:43:22;;;;;;;;;;;3.20;99.90;;;;;;5040388;28;20390;-66
2022/04/10 02:45:47;;;;;;;;;;;3.30;99.90;;;;;;5038925;28;19917;-66
2022/04/10 02:48:12;;;;;;;;;;;3.30;99.90;;;;;;5039278;28;19909;-66
2022/04/10 02:50:38;;;;;;;;;;;3.40;99.90;;;;;;5040582;28;19921;-66
2022/04/10 02:53:04;;;;;;;;;;;3.40;99.90;;;;;;5039630;28;19999;-66
2022/04/10 02:55:30;;;;;;;;;;;3.40;99.90;;;;;;5039695;28;20003;-66
2022/04/10 02:57:55;;;;;;;;;;;3.50;99.90;;;;;;5040332;28;20008;-66
2022/04/10 03:00:21;;;;;;;;;;;3.50;99.90;;;;;;5039917;28;20027;-66
2022/04/10 03:02:46;;;;;;;;;;;3.60;99.90;;;;;;5040593;28;20024;-66
2022/04/10 03:05:12;;;;;;;;;;;3.60;99.90;;;;;;5039662;28;19996;-66
2022/04/10 03:07:37;;;;;;;;;;;3.60;99.90;;;;;;5040916;28;19955;-66
2022/04/10 03:10:03;;;;;;;;;;;3.60;99.90;;;;;;5040312;28;20331;-65
2022/04/10 03:12:28;;;;;;;;;;;3.70;99.90;;;;;;5040403;28;19986;-66
2022/04/10 03:14:54;;;;;;;;;;;3.70;99.90;;;;;;5040436;28;20027;-66
2022/04/10 03:17:20;;;;;;;;;;;3.60;99.90;;;;;;5039390;28;20003;-66
2022/04/10 03:19:45;;;;;;;;;;;3.70;99.90;;;;;;5040048;28;19951;-66
2022/04/10 03:22:10;;;;;;;;;;;3.70;99.90;;;;;;5039726;28;19913;-66
2022/04/10 03:24:36;;;;;;;;;;;3.70;99.90;;;;;;5040024;28;19909;-66
2022/04/10 03:27:01;;;;;;;;;;;3.60;99.90;;;;;;5039915;28;19970;-66
2022/04/10 03:29:27;;;;;;;;;;;3.60;99.90;;;;;;5040046;28;19913;-66
2022/04/10 03:31:52;;;;;;;;;;;3.60;99.90;;;;;;5039304;28;19909;-66
2022/04/10 03:34:18;;;;;;;;;;;3.60;99.90;;;;;;5038086;28;19913;-66
2022/04/10 03:36:43;;;;;;;;;;;3.60;99.90;;;;;;5039016;28;19909;-66
2022/04/10 03:39:08;;;;;;;;;;;3.60;99.90;;;;;;5038516;28;19917;-65
2022/04/10 03:41:34;;;;;;;;;;;3.60;99.90;;;;;;5039512;28;19909;-66
2022/04/10 03:43:59;;;;;;;;;;;3.60;99.90;;;;;;5039319;28;19913;-66
2022/04/10 03:46:25;;;;;;;;;;;3.60;99.90;;;;;;5039261;28;20322;-66
2022/04/10 03:48:50;;;;;;;;;;;3.50;99.90;;;;;;5039201;28;19909;-66
2022/04/10 03:51:16;;;;;;;;;;;3.60;99.90;;;;;;5037193;28;20281;-66
2022/04/10 03:53:41;;;;;;;;;;;3.60;99.90;;;;;;5038542;28;20362;-66
2022/04/10 03:56:06;;;;;;;;;;;3.60;99.90;;;;;;5038883;28;19920;-66
2022/04/10 03:58:32;;;;;;;;;;;3.60;99.90;;;;;;5039949;28;20002;-66
2022/04/10 04:00:58;;;;;;;;;;;3.50;99.90;;;;;;5039779;28;20311;-66
2022/04/10 04:03:23;;;;;;;;;;;3.50;99.90;;;;;;5039718;28;20018;-66
2022/04/10 04:05:49;;;;;;;;;;;3.50;99.90;;;;;;5039445;28;19924;-66
2022/04/10 04:08:17;;;;;;;;;;;3.50;99.90;;;;;;5038409;28;20362;-66
2022/04/10 04:10:43;;;;;;;;;;;3.40;99.90;;;;;;5038828;28;20002;-66
2022/04/10 04:13:08;;;;;;;;;;;3.40;99.90;;;;;;5039012;28;19979;-66
2022/04/10 04:15:34;;;;;;;;;;;3.40;99.90;;;;;;5039041;28;19920;-66
2022/04/10 04:17:59;;;;;;;;;;;3.50;99.90;;;;;;5038753;28;19909;-66
2022/04/10 04:20:25;;;;;;;;;;;3.40;99.90;;;;;;5038431;28;20274;-66
2022/04/10 04:22:50;;;;;;;;;;;3.50;99.90;;;;;;5039258;28;20369;-66
2022/04/10 04:25:16;;;;;;;;;;;3.50;99.90;;;;;;5037292;28;19917;-66
2022/04/10 04:27:41;;;;;;;;;;;3.50;99.90;;;;;;5038276;28;19917;-66
2022/04/10 04:30:07;;;;;;;;;;;3.50;99.90;;;;;;5038571;28;19910;-66
2022/04/10 04:32:32;;;;;;;;;;;3.40;99.90;;;;;;5038672;28;19970;-66
2022/04/10 04:34:58;;;;;;;;;;;3.40;99.90;;;;;;5038841;28;19917;-66
2022/04/10 04:37:23;;;;;;;;;;;3.40;99.90;;;;;;5038112;28;19936;-66
2022/04/10 04:39:49;;;;;;;;;;;3.40;99.90;;;;;;5038660;28;20389;-66
2022/04/10 04:42:14;;;;;;;;;;;3.50;99.90;;;;;;5035653;28;20305;-66
2022/04/10 04:44:40;;;;;;;;;;;3.50;99.90;;;;;;5038357;28;19909;-66
2022/04/10 04:47:05;;;;;;;;;;;3.50;99.90;;;;;;5037345;28;19912;-66
2022/04/10 04:49:31;;;;;;;;;;;3.50;99.90;;;;;;5041581;28;19936;-66
2022/04/10 04:51:56;;;;;;;;;;;3.50;99.90;;;;;;5045337;28;19909;-66
2022/04/10 04:54:22;;;;;;;;;;;3.60;99.90;;;;;;5045449;28;20421;-66
2022/04/10 04:56:47;;;;;;;;;;;3.60;99.90;;;;;;5044158;28;19999;-66
2022/04/10 04:59:14;;;;;;;;;;;3.60;99.90;;;;;;5045346;28;20305;-66
2022/04/10 05:01:41;;;;;;;;;;;3.50;99.90;;;;;;5045018;28;19913;-66
2022/04/10 05:04:06;;;;;;;;;;;3.50;99.90;;;;;;5044666;28;19971;-66
2022/04/10 05:06:32;;;;;;;;;;;3.50;99.90;;;;;;5045138;28;20377;-66
2022/04/10 05:08:57;;;;;;;;;;;3.60;99.90;;;;;;5045079;28;19912;-65
2022/04/10 05:11:23;;;;;;;;;;;3.60;99.90;;;;;;5043931;28;19995;-66
2022/04/10 05:13:48;;;;;;;;;;;3.70;99.90;;;;;;5044671;28;19914;-65
2022/04/10 05:16:14;;;;;;;;;;;3.70;99.90;;;;;;5044803;28;19952;-65
2022/04/10 05:18:40;;;;;;;;;;;3.70;99.90;;;;;;5045037;28;19909;-66
2022/04/10 05:21:05;;;;;;;;;;;3.70;99.90;;;;;;5044732;28;20347;-66
2022/04/10 05:23:31;;;;;;;;;;;3.80;99.90;;;;;;5044802;28;19992;-66
2022/04/10 05:25:56;;;;;;;;;;;3.80;99.90;;;;;;5044997;28;20381;-65
2022/04/10 05:28:22;;;;;;;;;;;3.80;99.90;;;;;;5042991;28;19924;-65
2022/04/10 05:30:47;;;;;;;;;;;3.80;99.90;;;;;;5044740;28;20380;-65
2022/04/10 05:33:13;;;;;;;;;;;3.70;99.90;;;;;;5044431;28;19960;-65
2022/04/10 05:35:38;;;;;;;;;;;3.70;99.90;;;;;;5044719;28;19992;-65
2022/04/10 05:38:04;;;;;;;;;;;3.70;99.90;;;;;;5044590;28;20375;-65
2022/04/10 05:40:30;;;;;;;;;;;3.70;99.90;;;;;;5044507;28;19917;-65
2022/04/10 05:42:55;;;;;;;;;;;3.70;99.90;;;;;;5044683;28;19909;-65
2022/04/10 05:45:21;;;;;;;;;;;3.70;99.90;;;;;;5042260;28;19959;-65
2022/04/10 05:47:46;;;;;;;;;;;3.70;99.90;;;;;;5044155;28;20381;-65
2022/04/10 05:50:12;;;;;;;;;;;3.80;99.90;;;;;;5043991;28;19942;-65
2022/04/10 05:52:38;;;;;;;;;;;3.90;99.90;;;;;;5045157;28;20335;-65
2022/04/10 05:55:04;;;;;;;;;;;3.90;99.90;;;;;;5045350;28;19913;-66
2022/04/10 05:57:30;;;;;;;;;;;3.90;99.90;;;;;;5044331;28;19909;-65
2022/04/10 05:59:55;;;;;;;;;;;3.90;99.90;;;;;;5043891;28;20415;-66
2022/04/10 06:02:21;;;;;;;;;;;3.90;99.90;;;;;;5040409;28;19924;-65
2022/04/10 06:04:46;;;;;;;;;;;4.00;99.90;;;;;;5041623;28;19924;-62
2022/04/10 06:07:11;;;;;;;;;;;4.10;99.90;;;;;;5041531;28;19909;-65
2022/04/10 06:09:37;;;;;;;;;;;4.20;99.90;;;;;;5041727;28;19971;-65
2022/04/10 06:12:02;;;;;;;;;;;4.30;99.90;;;;;;5041386;28;19913;-65
2022/04/10 06:14:28;;;;;;;;;;;4.40;99.90;;;;;;5040707;28;19991;-65
2022/04/10 06:16:53;;;;;;;;;;;4.50;99.90;;;;;;5040154;28;19967;-66
2022/04/10 06:19:19;;;;;;;;;;;4.50;99.90;;;;;;5040314;28;19959;-65
2022/04/10 06:21:45;;;;;;;;;;;4.50;99.90;;;;;;5041117;28;19935;-65
2022/04/10 06:24:10;;;;;;;;;;;4.50;99.90;;;;;;5040589;28;20238;-65
2022/04/10 06:26:36;;;;;;;;;;;4.60;99.90;;;;;;5041008;28;20337;-65
2022/04/10 06:29:01;;;;;;;;;;;4.60;99.90;;;;;;5041040;28;19917;-65
2022/04/10 06:31:27;;;;;;;;;;;4.60;99.90;;;;;;5040579;28;20289;-65
2022/04/10 06:33:54;;;;;;;;;;;4.60;99.90;;;;;;5039696;28;20012;-66
2022/04/10 06:36:19;;;;;;;;;;;4.70;99.90;;;;;;5039610;28;19920;-65
2022/04/10 06:38:45;;;;;;;;;;;4.70;99.90;;;;;;5040673;28;20352;-66
2022/04/10 06:41:10;;;;;;;;;;;4.80;99.90;;;;;;5040274;28;19909;-66
2022/04/10 06:43:36;;;;;;;;;;;5.00;99.90;;;;;;5040202;28;20399;-66
2022/04/10 06:46:03;;;;;;;;;;;5.00;99.90;;;;;;5040223;28;19996;-66
2022/04/10 06:48:28;;;;;;;;;;;5.00;99.90;;;;;;5040058;28;19955;-65
2022/04/10 06:50:54;;;;;;;;;;;5.00;99.90;;;;;;5039009;28;20366;-66
2022/04/10 06:53:19;;;;;;;;;;;5.10;99.90;;;;;;5040672;28;20407;-66
2022/04/10 06:55:44;;;;;;;;;;;5.10;99.90;;;;;;5041006;28;19915;-65
2022/04/10 06:58:10;;;;;;;;;;;5.20;99.90;;;;;;5040657;28;19920;-66
2022/04/10 07:00:36;;;;;;;;;;;5.20;99.90;;;;;;5040612;28;19913;-65
2022/04/10 07:03:02;;;;;;;;;;;5.30;99.90;;;;;;5040797;28;19912;-66
2022/04/10 07:05:27;;;;;;;;;;;5.40;99.90;;;;;;5038413;28;20266;-66
2022/04/10 07:07:54;;;;;;;;;;;5.50;99.90;;;;;;5040483;28;20281;-66
2022/04/10 07:10:19;;;;;;;;;;;5.70;99.90;;;;;;5039832;28;19913;-66
2022/04/10 07:12:45;;;;;;;;;;;5.80;99.90;;;;;;5040096;28;19962;-66
2022/04/10 07:15:10;;;;;;;;;;;5.90;99.90;;;;;;5040134;28;19956;-65
2022/04/10 07:17:36;;;;;;;;;;;6.00;99.90;;;;;;5039957;28;19919;-66
2022/04/10 07:20:01;;;;;;;;;;;6.00;99.90;;;;;;5039718;28;19910;-66
2022/04/10 07:25:12;;;;;;;;;;;6.10;99.90;;;;;;5038833;28;19967;-66
2022/04/10 07:27:38;;;;;;;;;;;6.20;99.90;;;;;;5039419;28;19910;-66
2022/04/10 07:30:03;;;;;;;;;;;6.20;99.90;;;;;;5039706;28;19919;-66
2022/04/10 07:32:29;;;;;;;;;;;6.30;99.90;;;;;;5039096;28;19917;-66
2022/04/10 07:34:54;;;;;;;;;;;6.30;99.90;;;;;;5039637;28;19909;-66
2022/04/10 07:37:20;;;;;;;;;;;6.20;99.90;;;;;;5039305;28;19915;-66
2022/04/10 07:39:45;;;;;;;;;;;6.20;99.90;;;;;;5037884;28;19924;-65
2022/04/10 07:42:10;;;;;;;;;;;6.20;99.90;;;;;;5038474;28;20377;-65
2022/04/10 07:44:36;;;;;;;;;;;6.30;99.90;;;;;;5039371;28;20000;-66
2022/04/10 07:49:45;;;;;;;;;;;6.50;99.90;;;;;;5040015;28;20351;-66
2022/04/10 07:52:11;;;;;;;;;;;6.60;99.90;;;;;;5040174;28;19910;-66
2022/04/10 07:54:36;;;;;;;;;;;6.70;99.90;;;;;;5038492;28;20067;-66
2022/04/10 07:57:03;;;;;;;;;;;6.80;99.90;;;;;;5039514;28;19913;-66
2022/04/10 07:59:28;;;;;;;;;;;6.90;99.90;;;;;;5039546;28;19920;-66
2022/04/10 08:01:53;;;;;;;;;;;7.00;99.40;;;;;;5039759;28;19913;-66
2022/04/10 08:04:19;;;;;;;;;;;7.00;99.20;;;;;;5039478;28;19916;-66
2022/04/10 08:06:44;;;;;;;;;;;7.00;99.30;;;;;;5039563;28;19923;-66
2022/04/10 08:09:11;;;;;;;;;;;7.10;99.30;;;;;;5038507;28;21439;-66
2022/04/10 08:11:37;;;;;;;;;;;7.10;98.70;;;;;;5037414;28;19923;-66
2022/04/10 08:14:02;;;;;;;;;;;7.10;98.90;;;;;;5039014;28;19919;-66
2022/04/10 08:16:28;;;;;;;;;;;7.10;98.70;;;;;;5038573;28;19988;-66
2022/04/10 08:18:53;;;;;;;;;;;7.10;98.50;;;;;;5039461;28;19920;-65
2022/04/10 08:21:19;;;;;;;;;;;7.10;98.70;;;;;;5038800;28;19917;-65
2022/04/10 08:23:44;;;;;;;;;;;7.10;98.70;;;;;;5038457;28;20300;-65
2022/04/10 08:26:10;;;;;;;;;;;7.00;98.90;;;;;;5038537;28;19959;-65
2022/04/10 08:28:35;;;;;;;;;;;7.10;98.40;;;;;;5037411;28;20386;-65
2022/04/10 08:31:01;;;;;;;;;;;7.00;98.50;;;;;;5038244;28;19909;-65
2022/04/10 08:33:26;;;;;;;;;;;7.10;98.90;;;;;;5020471;28;20404;-65
2022/04/10 08:35:52;;;;;;;;;;;7.20;99.00;;;;;;5038641;28;19909;-65
2022/04/10 08:38:17;;;;;;;;;;;7.30;98.90;;;;;;5037588;28;19909;-66
2022/04/10 08:40:44;;;;;;;;;;;7.30;98.40;;;;;;5038555;28;19910;-65
2022/04/10 08:43:10;;;;;;;;;;;7.40;98.30;;;;;;5038029;28;20396;-65
2022/04/10 08:45:37;;;;;;;;;;;7.50;97.90;;;;;;5036080;28;19916;-65
2022/04/10 08:48:03;;;;;;;;;;;7.60;98.00;;;;;;5037537;28;19913;-65
2022/04/10 08:50:28;;;;;;;;;;;7.70;97.50;;;;;;5039499;28;20380;-65
2022/04/10 08:52:58;;;;;;;;;;;7.80;97.20;;;;;;5038488;28;19909;-65
2022/04/10 08:55:23;;;;;;;;;;;7.80;97.50;;;;;;5038495;28;20352;-65
2022/04/10 08:57:49;;;;;;;;;;;7.90;97.30;;;;;;5039124;28;20008;-65
2022/04/10 09:00:17;;;;;;;;;;;7.80;96.80;;;;;;5038978;28;19909;-65
2022/04/10 09:02:46;;;;;;;;;;;7.80;96.90;;;;;;5036629;28;19918;-65
2022/04/10 09:05:16;;;;;;;;;;;7.90;96.80;;;;;;5038308;28;19924;-65
2022/04/10 09:08:02;;;;;;;;;;;7.80;96.40;;;;;;5038562;28;19991;-65
2022/04/10 09:10:27;;;;;;;;;;;7.80;96.90;;;;;;5038317;28;20324;-66
2022/04/10 09:12:52;;;;;;;;;;;7.70;97.20;;;;;;5038585;28;19917;-66
2022/04/10 09:15:18;;;;;;;;;;;7.70;97.30;;;;;;5038127;28;19913;-65
2022/04/10 09:17:53;;;;;;;;;;;7.60;97.00;;;;;;5037194;28;19946;-65
2022/04/10 09:20:19;;;;;;;;;;;7.60;97.20;;;;;;5037573;28;19920;-65
2022/04/10 09:22:44;;;;;;;;;;;7.60;96.90;;;;;;5038479;28;19913;-65
2022/04/10 09:25:14;;;;;;;;;;;7.80;97.10;;;;;;5038136;28;19909;-65
2022/04/10 09:27:46;;;;;;;;;;;7.70;96.20;;;;;;5038357;28;19923;-65
2022/04/10 09:30:13;;;;;;;;;;;7.70;96.60;;;;;;5037817;28;20008;-65
2022/04/10 09:32:48;;;;;;;;;;;7.60;96.00;;;;;;5037873;28;19913;-65
2022/04/10 09:35:23;;;;;;;;;;;7.60;95.90;;;;;;5036525;28;19923;-65
2022/04/10 09:37:50;;;;;;;;;;;7.70;95.90;;;;;;5040927;28;20149;-65
2022/04/10 09:40:22;;;;;;;;;;;7.60;96.20;;;;;;5041676;28;19920;-66
2022/04/10 09:42:48;;;;;;;;;;;7.40;97.40;;;;;;5041439;28;19955;-66
2022/04/10 09:45:30;;;;;;;;;;;7.30;98.60;;;;;;5041105;28;19909;-66
2022/04/10 09:47:56;;;;;;;;;;;7.20;99.10;;;;;;5041451;28;20385;-66
2022/04/10 09:50:31;;;;;;;;;;;7.00;99.30;;;;;;5041242;28;19940;-66
2022/04/10 09:52:57;;;;;;;;;;;6.90;99.90;;;;;;5041681;28;19966;-66
2022/04/10 09:55:35;;;;;;;;;;;6.90;99.90;;;;;;5041728;28;19913;-66
2022/04/10 09:58:01;;;;;;;;;;;6.90;99.90;;;;;;5041484;28;19913;-66
2022/04/10 10:00:27;;;;;;;;;;;6.90;99.90;;;;;;5042458;28;19909;-66
2022/04/10 10:02:53;;;;;;;;;;;6.80;99.90;;;;;;5041860;28;19913;-66
2022/04/10 10:05:19;;;;;;;;;;;6.80;99.90;;;;;;5040620;28;20360;-66
2022/04/10 10:07:44;;;;;;;;;;;7.00;99.90;;;;;;5040528;28;19912;-66
2022/04/10 10:10:11;;;;;;;;;;;7.20;99.90;;;;;;5040794;28;19909;-66
2022/04/10 10:12:36;;;;;;;;;;;7.40;99.90;;;;;;5041323;28;20008;-66
2022/04/10 10:15:02;;;;;;;;;;;7.50;99.90;;;;;;5041387;28;19999;-66
2022/04/10 10:17:28;;;;;;;;;;;7.60;99.70;;;;;;5041160;28;19909;-66
2022/04/10 10:19:53;;;;;;;;;;;7.60;98.80;;;;;;5041311;28;19920;-66
2022/04/10 10:22:19;;;;;;;;;;;7.50;98.90;;;;;;5040900;28;20316;-66
2022/04/10 10:24:50;;;;;;;;;;;7.50;99.30;;;;;;5039148;28;19917;-66
2022/04/10 10:27:34;;;;;;;;;;;7.50;99.30;;;;;;5040083;28;19952;-66
2022/04/10 10:30:09;;;;;;;;;;;7.60;99.40;;;;;;5041069;28;19917;-66
2022/04/10 10:32:41;;;;;;;;;;;7.70;98.70;;;;;;5040881;28;20428;-66
2022/04/10 10:35:11;;;;;;;;;;;7.80;99.10;;;;;;5040469;28;19931;-66
2022/04/10 10:38:06;;;;;;;;;;;8.00;99.30;;;;;;5040271;28;19913;-66
2022/04/10 10:40:31;;;;;;;;;;;8.30;99.10;;;;;;5026403;28;19917;-66
2022/04/10 10:42:58;;;;;;;;;;;8.50;98.50;;;;;;5040225;28;19959;-66
2022/04/10 10:45:31;;;;;;;;;;;8.50;98.40;;;;;;5039385;28;19917;-66
2022/04/10 10:48:15;;;;;;;;;;;8.50;98.90;;;;;;5040067;28;19992;-67
2022/04/10 10:50:40;;;;;;;;;;;8.20;98.70;;;;;;5040848;28;19913;-66
2022/04/10 10:53:06;;;;;;;;;;;8.00;99.30;;;;;;5040968;28;19932;-66
2022/04/10 10:55:44;;;;;;;;;;;7.90;99.30;;;;;;5039284;28;20356;-66
2022/04/10 10:58:10;;;;;;;;;;;7.90;99.20;;;;;;5040286;28;19912;-66
2022/04/10 11:00:37;;;;;;;;;;;8.00;97.10;;;;;;5040524;28;19913;-67
2022/04/10 11:03:07;;;;;;;;;;;8.00;96.20;;;;;;5040735;28;19916;-66
2022/04/10 11:05:34;;;;;;;;;;;8.00;95.50;;;;;;5040154;28;19917;-66
2022/04/10 11:08:09;;;;;;;;;;;7.90;95.60;;;;;;5040607;28;20004;-66
2022/04/10 11:10:39;;;;;;;;;;;7.90;94.70;;;;;;5039322;28;20356;-66
2022/04/10 11:13:05;;;;;;;;;;;7.80;95.60;;;;;;5039283;28;19909;-66
2022/04/10 11:15:32;;;;;;;;;;;7.80;96.30;;;;;;5040087;28;19953;-66
2022/04/10 11:18:18;;;;;;;;;;;7.80;96.00;;;;;;5040440;28;19908;-66
2022/04/10 11:20:56;;;;;;;;;;;7.90;96.30;;;;;;5039497;28;19952;-66
2022/04/10 11:23:27;;;;;;;;;;;7.90;96.00;;;;;;5039689;28;19917;-66
2022/04/10 11:25:53;;;;;;;;;;;7.90;94.30;;;;;;5039914;28;19919;-66
2022/04/10 11:28:19;;;;;;;;;;;7.90;94.40;;;;;;5037997;28;19913;-66
2022/04/10 11:30:45;;;;;;;;;;;8.00;95.10;;;;;;5039448;28;19960;-66
2022/04/10 11:33:11;;;;;;;;;;;8.10;94.80;;;;;;5039452;28;19919;-66
2022/04/10 11:35:38;;;;;;;;;;;8.20;94.50;;;;;;5039362;28;19913;-66
2022/04/10 11:38:05;;;;;;;;;;;8.40;93.00;;;;;;5039563;28;19995;-65
2022/04/10 11:40:32;;;;;;;;;;;8.50;91.70;;;;;;5039264;28;20411;-66
2022/04/10 11:42:58;;;;;;;;;;;8.50;91.90;;;;;;5039339;28;19913;-65
2022/04/10 11:45:24;;;;;;;;;;;8.60;92.80;;;;;;5036775;28;19967;-66
2022/04/10 11:47:50;;;;;;;;;;;8.80;93.40;;;;;;5038404;28;19913;-66
2022/04/10 11:50:17;;;;;;;;;;;9.10;93.20;;;;;;5039758;28;19967;-65
2022/04/10 11:52:59;;;;;;;;;;;9.30;91.90;;;;;;5039546;28;20035;-66
2022/04/10 11:55:28;;;;;;;;;;;9.40;91.90;;;;;;5039100;28;19913;-66
2022/04/10 11:57:53;;;;;;;;;;;9.40;91.50;;;;;;5039549;28;19916;-66
2022/04/10 12:00:19;;;;;;;;;;;9.40;89.50;;;;;;5039115;28;19917;-66
2022/04/10 12:02:45;;;;;;;;;;;9.10;88.50;;;;;;5038047;28;19912;-66
2022/04/10 12:05:11;;;;;;;;;;;8.70;90.60;;;;;;5038951;28;20175;-65
2022/04/10 12:07:41;;;;;;;;;;;8.40;94.30;;;;;;5038953;28;19913;-66
2022/04/10 12:10:06;;;;;;;;;;;8.10;96.90;;;;;;5039268;28;20354;-65
2022/04/10 12:12:36;;;;;;;;;;;7.80;97.60;;;;;;5039369;28;19951;-66
2022/04/10 12:15:03;;;;;;;;;;;7.60;97.50;;;;;;5039044;28;19924;-66
2022/04/10 12:17:28;;;;;;;;;;;7.40;97.50;;;;;;5038607;28;19913;-66
2022/04/10 12:19:54;;;;;;;;;;;7.40;97.20;;;;;;5037867;28;20326;-66
2022/04/10 12:22:22;;;;;;;;;;;7.30;97.00;;;;;;5037785;28;19920;-66
2022/04/10 12:24:47;;;;;;;;;;;7.20;97.20;;;;;;5038579;28;19913;-66
2022/04/10 12:27:13;;;;;;;;;;;7.10;97.70;;;;;;5038251;28;20427;-66
2022/04/10 12:29:38;;;;;;;;;;;7.20;98.00;;;;;;5039026;28;19919;-66
2022/04/10 12:32:05;;;;;;;;;;;7.20;98.30;;;;;;5038456;28;19913;-66
2022/04/10 12:34:31;;;;;;;;;;;7.40;98.30;;;;;;5037975;28;19913;-66
2022/04/10 12:37:04;;;;;;;;;;;7.60;98.10;;;;;;5037338;28;20378;-66
2022/04/10 12:39:30;;;;;;;;;;;7.60;96.90;;;;;;5037687;28;19920;-66
2022/04/10 12:42:08;;;;;;;;;;;7.70;96.80;;;;;;5038381;28;20125;-66
2022/04/10 12:44:36;;;;;;;;;;;7.70;97.20;;;;;;5038142;28;19913;-66
2022/04/10 12:47:01;;;;;;;;;;;7.70;97.70;;;;;;5038274;28;20004;-67
2022/04/10 12:49:27;;;;;;;;;;;7.60;97.50;;;;;;5038524;28;20019;-67
2022/04/10 12:52:03;;;;;;;;;;;7.50;97.90;;;;;;5038992;28;19985;-66
2022/04/10 12:54:33;;;;;;;;;;;7.50;98.80;;;;;;5037543;28;19913;-66
2022/04/10 12:56:58;;;;;;;;;;;7.50;99.10;;;;;;5038640;28;19913;-66
2022/04/10 12:59:34;;;;;;;;;;;7.60;99.80;;;;;;5038569;28;20392;-66
2022/04/10 13:02:00;;;;;;;;;;;7.70;99.30;;;;;;5038960;28;19988;-66
2022/04/10 13:04:29;;;;;;;;;;;7.70;98.90;;;;;;5038300;28;19912;-67
2022/04/10 13:06:55;;;;;;;;;;;7.60;99.10;;;;;;5038111;28;19913;-66
2022/04/10 13:09:20;;;;;;;;;;;7.50;99.40;;;;;;5037319;28;19920;-66
2022/04/10 13:11:46;;;;;;;;;;;7.40;99.90;;;;;;5041462;28;19992;-66
2022/04/10 13:14:13;;;;;;;;;;;7.40;99.90;;;;;;5042471;28;20400;-66
2022/04/10 13:16:39;;;;;;;;;;;7.40;99.90;;;;;;5042289;28;19912;-66
2022/04/10 13:19:06;;;;;;;;;;;7.50;99.90;;;;;;5041880;28;20293;-66
2022/04/10 13:21:35;;;;;;;;;;;7.60;99.90;;;;;;5041459;28;19916;-66
2022/04/10 13:24:01;;;;;;;;;;;7.80;99.90;;;;;;5041984;28;19920;-67
2022/04/10 13:26:27;;;;;;;;;;;7.90;99.90;;;;;;5039696;28;19939;-66
2022/04/10 13:28:53;;;;;;;;;;;8.00;99.70;;;;;;5041378;28;19917;-66
2022/04/10 13:31:19;;;;;;;;;;;8.10;99.70;;;;;;5041794;28;19910;-66
2022/04/10 13:33:45;;;;;;;;;;;8.20;99.60;;;;;;5041564;28;19913;-66
2022/04/10 13:36:10;;;;;;;;;;;8.30;99.50;;;;;;5041565;28;19920;-66
2022/04/10 13:38:35;;;;;;;;;;;8.40;99.30;;;;;;5041468;28;19956;-66
2022/04/10 13:41:02;;;;;;;;;;;8.60;99.30;;;;;;5041651;28;20349;-66
2022/04/10 13:43:27;;;;;;;;;;;8.70;99.00;;;;;;5040371;28;20008;-66
2022/04/10 13:45:52;;;;;;;;;;;8.80;98.80;;;;;;5041799;28;20000;-66
2022/04/10 13:48:18;;;;;;;;;;;8.90;98.60;;;;;;5042130;28;19955;-66
2022/04/10 13:50:43;;;;;;;;;;;9.00;98.00;;;;;;5042315;28;19997;-66
2022/04/10 13:53:09;;;;;;;;;;;9.00;97.90;;;;;;5041943;28;20000;-66
2022/04/10 13:55:34;;;;;;;;;;;8.80;98.10;;;;;;5041609;28;19963;-67
2022/04/10 13:57:59;;;;;;;;;;;8.70;98.00;;;;;;5041991;28;20000;-66
2022/04/10 14:00:25;;;;;;;;;;;8.50;99.20;;;;;;5040822;28;20284;-67
2022/04/10 14:02:50;;;;;;;;;;;8.00;98.80;;;;;;5041434;28;20376;-67
2022/04/10 14:05:16;;;;;;;;;;;7.70;98.90;;;;;;5040605;28;19923;-67
2022/04/10 14:07:41;;;;;;;;;;;7.50;99.80;;;;;;5041388;28;19920;-67
2022/04/10 14:10:06;;;;;;;;;;;7.30;99.80;;;;;;5041422;28;19963;-66
2022/04/10 14:12:32;;;;;;;;;;;7.30;99.60;;;;;;5041406;28;19913;-66
2022/04/10 14:14:58;;;;;;;;;;;7.20;99.60;;;;;;5041350;28;20262;-67
2022/04/10 14:17:23;;;;;;;;;;;7.20;99.80;;;;;;5039719;28;19921;-66
2022/04/10 14:19:48;;;;;;;;;;;7.20;99.60;;;;;;5040703;28;20435;-66
2022/04/10 14:22:14;;;;;;;;;;;7.20;99.00;;;;;;5039924;28;19920;-67
2022/04/10 14:24:39;;;;;;;;;;;7.20;98.40;;;;;;5040814;28;19955;-66
2022/04/10 14:27:05;;;;;;;;;;;7.20;98.70;;;;;;5040160;28;19919;-66
2022/04/10 14:29:34;;;;;;;;;;;7.30;99.40;;;;;;5040641;28;19909;-67
2022/04/10 14:32:00;;;;;;;;;;;7.40;98.40;;;;;;5040982;28;19918;-67
2022/04/10 14:34:26;;;;;;;;;;;7.60;99.00;;;;;;5038737;28;20400;-67